Time;durP1;ratioP1;P1;durP2;ratioP2;P2;SDS_P1;SDS_P2;PMS_P1;PMS_P2;Temp;Humidity;BMP_temperature;BMP_pressure;BME280_temperature;BME280_humidity;BME280_pressure;Samples;Min_cycle;Max_cycle;Signal;HPM_P1;HPM_P2
2023/07/31 00:01:10;;;;;;;19.43;8.63;;;;;;;17.65;100.00;100977.28;5278825;28;20036;-77
2023/07/31 00:03:42;;;;;;;19.97;7.90;;;;;;;17.65;100.00;100969.34;5278795;28;20029;-78
2023/07/31 00:06:13;;;;;;;28.33;9.67;;;;;;;17.65;100.00;100972.00;5270492;28;20032;-76
2023/07/31 00:08:44;;;;;;;20.00;8.10;;;;;;;17.61;100.00;100967.13;5278075;28;20032;-77
2023/07/31 00:11:16;;;;;;;17.67;7.73;;;;;;;17.59;100.00;100972.56;5275392;28;20105;-76
2023/07/31 00:13:47;;;;;;;22.73;7.50;;;;;;;17.57;100.00;100963.91;5275990;28;20465;-76
2023/07/31 00:16:19;;;;;;;19.87;7.33;;;;;;;17.60;100.00;100982.16;5275117;28;20025;-75
2023/07/31 00:18:50;;;;;;;23.63;9.10;;;;;;;17.57;100.00;100982.44;5276104;28;20032;-78
2023/07/31 00:21:21;;;;;;;18.77;7.07;;;;;;;17.57;100.00;100968.34;5274572;28;20099;-77
2023/07/31 00:23:53;;;;;;;17.33;7.77;;;;;;;17.59;100.00;100969.91;5243068;28;20041;-78
2023/07/31 00:26:24;;;;;;;21.23;7.80;;;;;;;17.59;100.00;100985.78;5254592;28;20513;-74
2023/07/31 00:28:55;;;;;;;19.73;7.13;;;;;;;17.58;100.00;100970.84;5256708;28;20025;-76
2023/07/31 00:31:26;;;;;;;14.37;6.47;;;;;;;17.53;100.00;100967.78;5264119;28;20024;-75
2023/07/31 00:33:58;;;;;;;18.80;7.30;;;;;;;17.55;100.00;100963.19;5269988;28;20025;-78
2023/07/31 00:36:30;;;;;;;20.53;8.53;;;;;;;17.60;100.00;100970.72;5266959;28;20028;-76
2023/07/31 00:39:01;;;;;;;18.43;6.97;;;;;;;17.57;100.00;100966.53;5273487;28;20111;-78
2023/07/31 00:41:32;;;;;;;24.40;8.53;;;;;;;17.64;100.00;100962.38;5271571;28;20519;-78
2023/07/31 00:44:04;;;;;;;17.37;7.23;;;;;;;17.60;100.00;100954.84;5269693;28;20584;-78
2023/07/31 00:46:35;;;;;;;20.13;7.27;;;;;;;17.62;100.00;100959.03;5273044;28;20090;-77
2023/07/31 00:49:07;;;;;;;22.53;8.77;;;;;;;17.57;100.00;100961.25;5263012;28;20133;-76
2023/07/31 00:51:39;;;;;;;15.27;6.70;;;;;;;17.57;100.00;100960.41;5271557;28;20082;-74
2023/07/31 00:54:11;;;;;;;20.20;6.53;;;;;;;17.52;100.00;100958.16;5272973;28;20099;-75
2023/07/31 00:56:45;;;;;;;17.67;7.13;;;;;;;17.49;100.00;100955.81;5272189;28;20107;-76
2023/07/31 00:59:18;;;;;;;17.53;6.87;;;;;;;17.46;100.00;100959.53;5272889;28;20427;-74
2023/07/31 01:01:50;;;;;;;18.87;6.83;;;;;;;17.44;100.00;100945.59;5319609;22;21159;-78
2023/07/31 01:04:21;;;;;;;15.03;6.40;;;;;;;17.45;100.00;100954.38;5284495;28;20036;-76
2023/07/31 01:07:10;;;;;;;20.43;7.37;;;;;;;17.57;100.00;100950.66;5268585;28;20037;-77
2023/07/31 01:10:08;;;;;;;14.50;5.80;;;;;;;17.61;100.00;100952.03;5254958;28;20037;-76
2023/07/31 01:12:40;;;;;;;14.23;6.17;;;;;;;17.45;100.00;100947.28;5270526;28;20595;-76
2023/07/31 01:15:11;;;;;;;15.00;5.50;;;;;;;17.45;100.00;100946.44;5265474;28;20079;-77
2023/07/31 01:17:43;;;;;;;15.03;6.37;;;;;;;17.47;100.00;100947.16;5271177;28;20029;-77
2023/07/31 01:20:16;;;;;;;19.00;6.43;;;;;;;17.51;100.00;100945.88;5273674;28;20025;-77
2023/07/31 01:22:59;;;;;;;17.97;7.63;;;;;;;17.62;100.00;100947.59;5270733;28;20432;-77
2023/07/31 01:25:51;;;;;;;14.30;6.50;;;;;;;17.62;100.00;100940.50;5265527;28;20532;-76
2023/07/31 01:28:29;;;;;;;19.13;6.70;;;;;;;17.53;100.00;100943.94;5255260;28;20017;-76
2023/07/31 01:31:05;;;;;;;17.87;6.40;;;;;;;17.46;100.00;100945.47;5263928;28;20537;-75
2023/07/31 01:33:37;;;;;;;16.73;6.77;;;;;;;17.41;100.00;100936.13;5255752;28;20707;-76
2023/07/31 01:36:10;;;;;;;16.73;7.70;;;;;;;17.44;100.00;100942.13;5266088;28;20040;-76
2023/07/31 01:38:41;;;;;;;14.73;5.93;;;;;;;17.44;100.00;100944.78;5268322;28;20024;-74
2023/07/31 01:41:13;;;;;;;14.97;5.67;;;;;;;17.41;100.00;100944.06;5268615;28;20025;-77
2023/07/31 01:43:48;;;;;;;14.37;5.87;;;;;;;17.43;100.00;100936.00;5257819;28;20040;-76
2023/07/31 01:46:19;;;;;;;16.17;6.63;;;;;;;17.35;100.00;100936.66;5266880;28;20097;-75
2023/07/31 01:48:51;;;;;;;15.17;6.30;;;;;;;17.35;100.00;100947.25;5272746;28;20021;-78
2023/07/31 01:51:22;;;;;;;19.00;6.93;;;;;;;17.31;100.00;100937.06;5265389;28;20028;-77
2023/07/31 01:53:53;;;;;;;15.93;6.50;;;;;;;17.33;100.00;100933.28;5269011;28;20521;-75
2023/07/31 01:56:24;;;;;;;18.13;6.40;;;;;;;17.32;100.00;100936.06;5264787;28;20096;-77
2023/07/31 01:58:56;;;;;;;18.40;6.57;;;;;;;17.30;100.00;100933.56;5271416;28;20028;-75
2023/07/31 02:01:27;;;;;;;15.17;6.17;;;;;;;17.33;100.00;100925.34;5269555;28;20017;-75
2023/07/31 02:03:58;;;;;;;19.90;5.63;;;;;;;17.32;100.00;100915.75;5272594;28;20085;-78
2023/07/31 02:06:30;;;;;;;15.70;6.57;;;;;;;17.23;100.00;100911.25;5268654;28;20511;-76
2023/07/31 02:09:01;;;;;;;15.97;6.30;;;;;;;17.27;100.00;100902.09;5266539;28;20785;-75
2023/07/31 02:11:33;;;;;;;12.67;5.30;;;;;;;17.26;100.00;100911.00;5249468;28;20037;-76
2023/07/31 02:14:04;;;;;;;17.53;6.17;;;;;;;17.21;100.00;100905.28;5272037;28;20104;-75
2023/07/31 02:16:35;;;;;;;16.90;7.37;;;;;;;17.21;100.00;100899.97;5269306;28;20037;-76
2023/07/31 02:19:06;;;;;;;17.43;6.97;;;;;;;17.23;100.00;100900.66;5274943;28;20448;-74
2023/07/31 02:21:38;;;;;;;18.80;6.90;;;;;;;17.19;100.00;100899.28;5262887;28;20036;-76
2023/07/31 02:24:10;;;;;;;13.57;7.20;;;;;;;17.17;100.00;100897.59;5274817;28;20060;-76
2023/07/31 02:26:42;;;;;;;16.33;6.93;;;;;;;17.21;100.00;100886.75;5274235;28;20033;-73
2023/07/31 02:29:13;;;;;;;16.10;6.87;;;;;;;17.20;100.00;100893.00;5259551;28;20463;-76
2023/07/31 02:31:46;;;;;;;21.17;6.83;;;;;;;17.17;100.00;100883.53;5273143;28;20533;-78
2023/07/31 02:34:18;;;;;;;19.92;6.85;;;;;;;17.15;100.00;100888.97;5264161;28;20021;-77
2023/07/31 02:36:49;;;;;;;17.40;6.43;;;;;;;17.17;100.00;100883.53;5275565;28;20090;-77
2023/07/31 02:39:20;;;;;;;18.00;7.33;;;;;;;17.10;100.00;100880.59;5270823;28;20111;-78
2023/07/31 02:41:52;;;;;;;18.97;8.30;;;;;;;17.11;100.00;100873.47;5259732;28;20449;-76
2023/07/31 02:44:23;;;;;;;17.40;8.37;;;;;;;17.09;100.00;100872.75;5271391;28;20025;-76
2023/07/31 02:46:54;;;;;;;17.60;6.53;;;;;;;17.02;100.00;100868.00;5273660;28;20031;-76
2023/07/31 02:49:26;;;;;;;19.83;7.23;;;;;;;17.10;100.00;100880.59;5266127;28;20017;-76
2023/07/31 02:51:57;;;;;;;20.37;7.10;;;;;;;17.08;100.00;100874.56;5276278;28;20077;-76
2023/07/31 02:54:28;;;;;;;14.97;6.73;;;;;;;17.13;100.00;100880.31;5273150;28;20083;-76
2023/07/31 02:57:00;;;;;;;17.07;6.37;;;;;;;17.08;100.00;100871.91;5274200;28;20047;-76
2023/07/31 02:59:31;;;;;;;19.97;7.57;;;;;;;17.07;100.00;100864.94;5261487;28;20036;-76
2023/07/31 03:02:02;;;;;;;14.63;7.20;;;;;;;16.91;100.00;100850.41;5272857;28;20414;-75
2023/07/31 03:04:34;;;;;;;17.63;5.93;;;;;;;17.12;100.00;100872.50;5265784;28;20733;-75
2023/07/31 03:07:05;;;;;;;16.93;6.47;;;;;;;17.06;100.00;100871.22;5270897;28;20040;-76
2023/07/31 03:09:37;;;;;;;19.23;7.17;;;;;;;17.07;100.00;100872.88;5273932;28;20033;-74
2023/07/31 03:12:08;;;;;;;16.97;6.77;;;;;;;17.13;100.00;100868.88;5270606;28;20024;-77
2023/07/31 03:14:40;;;;;;;18.57;7.73;;;;;;;17.13;100.00;100875.03;5265052;28;20029;-77
2023/07/31 03:17:12;;;;;;;17.37;6.93;;;;;;;17.06;100.00;100868.56;5271597;28;20284;-75
2023/07/31 03:19:43;;;;;;;17.67;6.77;;;;;;;17.08;100.00;100874.56;5274009;28;20048;-74
2023/07/31 03:22:14;;;;;;;14.60;6.70;;;;;;;17.09;100.00;100868.28;5257635;28;20025;-76
2023/07/31 03:24:45;;;;;;;18.23;6.80;;;;;;;17.10;100.00;100859.44;5271205;28;20116;-76
2023/07/31 03:27:18;;;;;;;19.67;6.50;;;;;;;17.05;100.00;100867.72;5271530;28;20449;-76
2023/07/31 03:29:51;;;;;;;19.93;7.33;;;;;;;17.03;100.00;100856.44;5274709;28;20107;-75
2023/07/31 03:32:22;;;;;;;17.60;7.00;;;;;;;17.06;100.00;100860.63;5269774;28;20036;-76
2023/07/31 03:34:53;;;;;;;15.87;6.63;;;;;;;17.07;100.00;100854.34;5258343;28;20085;-77
2023/07/31 03:37:25;;;;;;;20.57;7.07;;;;;;;17.10;100.00;100848.84;5275546;28;20051;-77
2023/07/31 03:39:57;;;;;;;19.97;7.07;;;;;;;17.12;100.00;100846.88;5274112;28;20031;-77
2023/07/31 03:42:28;;;;;;;17.67;6.43;;;;;;;17.11;100.00;100847.00;5275634;28;20036;-78
2023/07/31 03:44:59;;;;;;;15.20;6.97;;;;;;;17.10;100.00;100843.56;5253106;28;20111;-78
2023/07/31 03:47:30;;;;;;;17.10;6.93;;;;;;;17.05;100.00;100832.50;5244366;28;20053;-76
2023/07/31 03:50:02;;;;;;;16.67;6.63;;;;;;;17.13;100.00;100842.44;5272774;28;20063;-76
2023/07/31 03:52:33;;;;;;;17.57;5.97;;;;;;;17.10;100.00;100838.25;5264689;28;20048;-77
2023/07/31 03:55:05;;;;;;;18.80;6.73;;;;;;;17.12;100.00;100831.00;5273182;28;20514;-76
2023/07/31 03:57:36;;;;;;;16.93;5.97;;;;;;;17.13;100.00;100823.91;5247921;28;20044;-75
2023/07/31 04:00:08;;;;;;;17.33;6.57;;;;;;;17.13;100.00;100821.25;5255313;28;20033;-76
2023/07/31 04:02:39;;;;;;;20.47;7.17;;;;;;;17.20;100.00;100817.09;5270649;28;20075;-76
2023/07/31 04:05:11;;;;;;;16.67;6.50;;;;;;;17.15;100.00;100812.22;5273082;28;20422;-76
2023/07/31 04:07:42;;;;;;;13.33;6.07;;;;;;;17.20;100.00;100813.59;5273638;28;20028;-77
2023/07/31 04:10:13;;;;;;;22.93;6.93;;;;;;;17.22;100.00;100804.56;5272621;28;20033;-78
2023/07/31 04:12:45;;;;;;;16.30;6.23;;;;;;;17.18;100.00;100789.94;5274445;28;20029;-77
2023/07/31 04:15:16;;;;;;;17.90;6.63;;;;;;;17.23;100.00;100813.34;5269333;28;20135;-78
2023/07/31 04:17:47;;;;;;;15.60;6.70;;;;;;;17.20;100.00;100790.63;5274738;28;20844;-77
2023/07/31 04:20:19;;;;;;;17.03;6.00;;;;;;;17.25;100.00;100792.88;5274523;28;20041;-76
2023/07/31 04:22:50;;;;;;;18.43;6.47;;;;;;;17.27;100.00;100791.75;5257126;28;20063;-76
2023/07/31 04:25:21;;;;;;;18.43;7.30;;;;;;;17.33;100.00;100794.84;5255543;28;20116;-77
2023/07/31 04:27:53;;;;;;;13.37;6.30;;;;;;;17.27;100.00;100786.47;5274683;28;20599;-75
2023/07/31 04:30:24;;;;;;;16.03;6.07;;;;;;;17.34;100.00;100786.75;5256293;28;20016;-76
2023/07/31 04:32:55;;;;;;;14.53;6.30;;;;;;;17.36;100.00;100790.09;5275306;28;20055;-78
2023/07/31 04:35:27;;;;;;;15.43;6.00;;;;;;;17.36;100.00;100783.97;5274608;28;20029;-78
2023/07/31 04:37:58;;;;;;;17.23;5.90;;;;;;;17.35;100.00;100777.81;5274266;28;20048;-74
2023/07/31 04:40:30;;;;;;;17.93;6.13;;;;;;;17.40;100.00;100780.09;5272954;28;20017;-77
2023/07/31 04:43:01;;;;;;;14.80;5.60;;;;;;;17.38;100.00;100774.94;5267062;28;20027;-78
2023/07/31 04:45:32;;;;;;;13.97;6.03;;;;;;;17.36;100.00;100768.09;5260901;28;20513;-78
2023/07/31 04:48:04;;;;;;;19.43;6.67;;;;;;;17.43;100.00;100763.91;5273750;28;20028;-77
2023/07/31 04:50:35;;;;;;;18.50;7.67;;;;;;;17.42;100.00;100760.41;5263046;28;20090;-78
2023/07/31 04:53:06;;;;;;;20.37;6.93;;;;;;;17.44;100.00;100762.09;5270624;28;20028;-74
2023/07/31 04:55:38;;;;;;;15.23;6.10;;;;;;;17.45;100.00;100756.69;5259970;28;20032;-75
2023/07/31 04:58:09;;;;;;;17.70;7.13;;;;;;;17.42;100.00;100763.06;5265823;28;20102;-75
2023/07/31 05:00:40;;;;;;;18.67;6.30;;;;;;;17.47;100.00;100764.47;5270947;28;20411;-78
2023/07/31 05:03:11;;;;;;;14.57;6.53;;;;;;;17.48;100.00;100755.53;5255174;28;20052;-78
2023/07/31 05:05:43;;;;;;;17.40;6.33;;;;;;;17.48;100.00;100764.34;5263313;28;20067;-78
2023/07/31 05:08:14;;;;;;;16.57;5.80;;;;;;;17.47;100.00;100764.47;5267740;28;20036;-75
2023/07/31 05:10:46;;;;;;;15.60;5.60;;;;;;;17.48;100.00;100750.25;5263827;28;20032;-78
2023/07/31 05:13:17;;;;;;;12.97;5.93;;;;;;;17.51;100.00;100755.25;5259521;28;20136;-77
2023/07/31 05:15:49;;;;;;;10.83;5.33;;;;;;;17.45;100.00;100739.94;5252222;28;20040;-77
2023/07/31 05:18:20;;;;;;;15.50;7.43;;;;;;;17.46;100.00;100745.09;5253673;28;20033;-76
2023/07/31 05:20:52;;;;;;;13.90;5.87;;;;;;;17.49;100.00;100747.47;5271195;28;20036;-77
2023/07/31 05:23:23;;;;;;;14.13;6.57;;;;;;;17.43;100.00;100753.31;5261332;28;20509;-77
2023/07/31 05:25:54;;;;;;;11.00;5.20;;;;;;;17.47;100.00;100748.59;5262055;28;20028;-76
2023/07/31 05:28:25;;;;;;;16.70;5.60;;;;;;;17.42;100.00;100744.53;5255231;28;20111;-76
2023/07/31 05:30:59;;;;;;;18.43;6.50;;;;;;;17.40;100.00;100754.41;5260073;28;20036;-75
2023/07/31 05:33:31;;;;;;;10.90;5.10;;;;;;;17.47;100.00;100753.88;5272848;28;20062;-76
2023/07/31 05:36:02;;;;;;;8.83;5.30;;;;;;;17.41;100.00;100747.31;5250627;28;20036;-76
2023/07/31 05:38:33;;;;;;;10.20;5.20;;;;;;;17.44;100.00;100754.16;5252987;28;20044;-74
2023/07/31 05:41:05;;;;;;;12.17;4.80;;;;;;;17.34;100.00;100739.09;5252784;28;20036;-75
2023/07/31 05:43:36;;;;;;;8.03;4.77;;;;;;;17.36;100.00;100739.81;5264804;28;20155;-74
2023/07/31 05:46:09;;;;;;;8.87;4.33;;;;;;;17.41;100.00;100739.38;5256563;28;20120;-76
2023/07/31 05:48:40;;;;;;;8.53;5.10;;;;;;;17.39;100.00;100726.28;5264670;28;20033;-76
2023/07/31 05:51:11;;;;;;;9.03;4.30;;;;;;;17.34;100.00;100730.31;5254285;28;20063;-75
2023/07/31 05:53:43;;;;;;;8.23;4.77;;;;;;;17.36;100.00;100716.00;5269940;28;20399;-76
2023/07/31 05:56:14;;;;;;;7.83;3.93;;;;;;;17.35;100.00;100732.81;5276785;28;20071;-75
2023/07/31 05:58:46;;;;;;;9.90;3.83;;;;;;;17.34;100.00;100714.44;5274398;28;20093;-74
2023/07/31 06:01:18;;;;;;;7.43;4.00;;;;;;;17.35;100.00;100727.53;5266289;28;20032;-73
2023/07/31 06:03:49;;;;;;;6.73;3.60;;;;;;;17.37;100.00;100725.59;5258482;28;20607;-74
2023/07/31 06:06:20;;;;;;;6.80;3.60;;;;;;;17.38;100.00;100714.03;5258743;28;20036;-74
2023/07/31 06:08:52;;;;;;;6.33;3.47;;;;;;;17.37;100.00;100722.09;5267053;28;20033;-76
2023/07/31 06:11:23;;;;;;;4.97;3.00;;;;;;;17.34;100.00;100712.66;5264856;28;20029;-76
2023/07/31 06:13:54;;;;;;;6.43;3.57;;;;;;;17.32;100.00;100709.28;5240401;28;20032;-76
2023/07/31 06:16:27;;;;;;;5.77;4.23;;;;;;;17.31;100.00;100712.09;5253785;28;20056;-75
2023/07/31 06:18:58;;;;;;;5.00;3.13;;;;;;;17.35;100.00;100708.19;5277763;28;20364;-75
2023/07/31 06:21:30;;;;;;;5.30;3.17;;;;;;;17.37;100.00;100717.66;5275983;28;20090;-75
2023/07/31 06:24:02;;;;;;;6.83;3.50;;;;;;;17.38;100.00;100706.09;5274221;28;20043;-75
2023/07/31 06:26:33;;;;;;;4.70;3.30;;;;;;;17.34;100.00;100707.34;5272837;28;20426;-75
2023/07/31 06:29:05;;;;;;;5.90;3.37;;;;;;;17.37;100.00;100709.72;5268677;28;20458;-74
2023/07/31 06:31:36;;;;;;;4.93;3.70;;;;;;;17.32;100.00;100709.28;5277200;28;20112;-75
2023/07/31 06:34:07;;;;;;;6.17;3.57;;;;;;;17.36;100.00;100694.81;5238209;28;20029;-75
2023/07/31 06:36:38;;;;;;;5.20;3.90;;;;;;;17.36;100.00;100699.25;5222246;28;20063;-75
2023/07/31 06:39:10;;;;;;;6.10;3.77;;;;;;;17.42;100.00;100704.81;5266859;28;20036;-75
2023/07/31 06:41:42;;;;;;;4.93;3.87;;;;;;;17.47;100.00;100701.75;5277511;28;20032;-77
2023/07/31 06:44:14;;;;;;;9.13;4.10;;;;;;;17.43;100.00;100695.09;5276646;28;20089;-76
2023/07/31 06:46:45;;;;;;;6.27;3.97;;;;;;;17.45;100.00;100687.84;5276746;28;20029;-76
2023/07/31 06:49:16;;;;;;;5.70;4.00;;;;;;;17.47;100.00;100693.00;5276749;28;20426;-77
2023/07/31 06:51:48;;;;;;;6.00;3.87;;;;;;;17.48;100.00;100686.72;5251792;28;20029;-77
2023/07/31 06:54:19;;;;;;;6.27;3.60;;;;;;;17.49;100.00;100683.09;5255583;28;20613;-77
2023/07/31 06:56:50;;;;;;;7.77;3.33;;;;;;;17.45;100.00;100676.41;5256678;28;20028;-76
2023/07/31 06:59:22;;;;;;;5.97;3.53;;;;;;;17.41;100.00;100671.41;5258156;28;20072;-76
2023/07/31 07:01:53;;;;;;;6.63;3.50;;;;;;;17.52;100.00;100685.47;5263796;28;22111;-76
2023/07/31 07:04:24;;;;;;;5.07;3.03;;;;;;;17.50;100.00;100679.47;5255101;28;20025;-75
2023/07/31 07:06:55;;;;;;;5.43;3.90;;;;;;;17.55;100.00;100677.22;5257766;28;20612;-76
2023/07/31 07:09:27;;;;;;;3.93;3.00;;;;;;;17.55;100.00;100669.28;5258335;28;20039;-76
2023/07/31 07:11:58;;;;;;;5.37;3.30;;;;;;;17.61;100.00;100676.66;5270811;28;20036;-75
2023/07/31 07:14:29;;;;;;;4.27;2.80;;;;;;;17.60;100.00;100669.69;5268986;28;20024;-75
2023/07/31 07:17:01;;;;;;;5.60;3.13;;;;;;;17.54;100.00;100667.63;5268932;28;20048;-75
2023/07/31 07:19:32;;;;;;;4.93;3.20;;;;;;;17.49;100.00;100661.94;5249575;28;20036;-75
2023/07/31 07:22:04;;;;;;;4.73;3.10;;;;;;;17.56;100.00;100673.59;5272414;28;20186;-76
2023/07/31 07:24:35;;;;;;;6.27;3.30;;;;;;;17.54;100.00;100664.97;5268094;28;20025;-75
2023/07/31 07:27:06;;;;;;;6.53;3.80;;;;;;;17.52;100.00;100659.00;5253499;28;20029;-76
2023/07/31 07:29:38;;;;;;;5.03;3.30;;;;;;;17.53;100.00;100658.84;5271128;28;20073;-76
2023/07/31 07:32:09;;;;;;;4.13;3.63;;;;;;;17.62;100.00;100667.75;5266703;28;20063;-76
2023/07/31 07:34:41;;;;;;;5.23;3.33;;;;;;;17.70;100.00;100659.06;5270313;28;20075;-75
2023/07/31 07:37:12;;;;;;;4.63;3.43;;;;;;;17.78;100.00;100658.38;5270747;28;20071;-75
2023/07/31 07:39:44;;;;;;;7.20;3.80;;;;;;;17.58;100.00;100670.78;5254823;28;20082;-76
2023/07/31 07:42:16;;;;;;;7.00;4.17;;;;;;;17.46;100.00;100667.47;5263182;28;20627;-76
2023/07/31 07:44:47;;;;;;;8.73;3.70;;;;;;;17.49;100.00;100668.03;5274546;28;20072;-76
2023/07/31 07:47:18;;;;;;;7.47;4.50;;;;;;;17.55;100.00;100671.94;5256850;28;20111;-76
2023/07/31 07:49:50;;;;;;;6.80;4.67;;;;;;;17.54;100.00;100665.78;5273696;28;20115;-76
2023/07/31 07:52:21;;;;;;;7.87;4.27;;;;;;;17.58;100.00;100671.63;5256913;28;20040;-75
2023/07/31 07:54:52;;;;;;;8.33;4.63;;;;;;;17.58;100.00;100661.06;5257197;28;20495;-76
2023/07/31 07:57:24;;;;;;;7.83;4.97;;;;;;;17.56;100.00;100665.66;5268863;28;20562;-77
2023/07/31 07:59:55;;;;;;;9.87;5.13;;;;;;;17.58;100.00;100665.50;5253935;28;20110;-77
2023/07/31 08:02:26;;;;;;;8.43;4.27;;;;;;;17.54;100.00;100657.03;5257173;28;20116;-77
2023/07/31 08:04:57;;;;;;;9.93;4.53;;;;;;;17.59;100.00;100661.91;5253838;28;20021;-76
2023/07/31 08:07:29;;;;;;;7.93;4.73;;;;;;;17.54;100.00;100659.69;5254884;28;20029;-75
2023/07/31 08:10:00;;;;;;;6.83;4.47;;;;;;;17.52;100.00;100661.63;5271545;28;20155;-76
2023/07/31 08:12:31;;;;;;;8.37;5.10;;;;;;;17.57;100.00;100653.25;5274461;28;20116;-77
2023/07/31 08:15:03;;;;;;;6.27;4.57;;;;;;;17.63;100.00;100652.66;5269479;28;20028;-76
2023/07/31 08:17:35;;;;;;;10.33;4.80;;;;;;;17.66;100.00;100655.88;5263236;28;20749;-77
2023/07/31 08:20:07;;;;;;;8.63;4.87;;;;;;;17.69;100.00;100652.13;5263416;28;20029;-76
2023/07/31 08:22:38;;;;;;;6.40;4.70;;;;;;;17.66;100.00;100653.22;5278928;28;20032;-77
2023/07/31 08:25:09;;;;;;;7.30;4.50;;;;;;;17.63;100.00;100652.66;5277291;28;20025;-81
2023/07/31 08:27:44;;;;;;;7.17;4.47;;;;;;;17.68;100.00;100662.84;5277325;28;20020;-82
2023/07/31 08:30:15;;;;;;;6.83;5.07;;;;;;;17.60;100.00;100658.25;5241062;28;20039;-81
2023/07/31 08:32:47;;;;;;;9.13;4.47;;;;;;;17.63;100.00;100653.50;5275968;28;20374;-79
2023/07/31 08:35:18;;;;;;;8.97;5.40;;;;;;;17.64;100.00;100660.50;5268140;28;20040;-80
2023/07/31 08:37:49;;;;;;;7.43;4.63;;;;;;;17.72;100.00;100645.69;5254470;28;20040;-77
2023/07/31 08:40:24;;;;;;;8.97;4.70;;;;;;;17.71;100.00;100650.16;5265281;28;20040;-79
2023/07/31 08:43:02;;;;;;;8.15;4.72;;;;;;;17.69;100.00;100656.56;5254441;28;20029;-77
2023/07/31 08:45:34;;;;;;;10.23;5.57;;;;;;;17.70;100.00;100659.06;5243850;28;20025;-78
2023/07/31 08:48:05;;;;;;;7.90;4.50;;;;;;;17.68;100.00;100655.72;5258945;28;20119;-76
2023/07/31 08:50:38;;;;;;;10.10;5.23;;;;;;;17.75;100.00;100658.66;5265014;28;20017;-79
2023/07/31 08:53:09;;;;;;;11.53;5.60;;;;;;;17.64;100.00;100639.31;5274505;28;20028;-79
2023/07/31 08:55:41;;;;;;;10.20;6.50;;;;;;;17.72;100.00;100650.97;5268180;28;20037;-77
2023/07/31 08:58:12;;;;;;;9.67;5.13;;;;;;;17.70;100.00;100637.88;5253898;28;20102;-73
2023/07/31 09:00:46;;;;;;;8.50;5.07;;;;;;;17.80;100.00;100648.47;5268975;28;20040;-74
2023/07/31 09:03:18;;;;;;;10.53;6.17;;;;;;;17.81;100.00;100644.81;5262965;28;20052;-75
2023/07/31 09:05:50;;;;;;;9.37;5.10;;;;;;;17.89;100.00;100642.28;5252394;28;20479;-73
2023/07/31 09:08:22;;;;;;;7.47;5.43;;;;;;;17.91;100.00;100652.72;5263047;28;20052;-74
2023/07/31 09:10:54;;;;;;;9.33;5.20;;;;;;;17.91;100.00;100644.78;5259477;28;20025;-76
2023/07/31 09:13:28;;;;;;;9.30;5.23;;;;;;;17.94;100.00;100639.22;5262600;28;20459;-80
2023/07/31 09:15:59;;;;;;;6.72;5.30;;;;;;;17.98;100.00;100642.38;5266374;28;20033;-78
2023/07/31 09:18:30;;;;;;;12.27;5.47;;;;;;;18.02;100.00;100641.13;5272188;28;20031;-76
2023/07/31 09:21:03;;;;;;;9.07;5.27;;;;;;;17.97;100.00;100627.47;5263649;28;20025;-80
2023/07/31 09:23:45;;;;;;;9.77;5.50;;;;;;;18.17;100.00;100632.72;5271631;28;20112;-76
2023/07/31 09:26:36;;;;;;;11.70;5.77;;;;;;;18.18;100.00;100632.56;5261963;28;20029;-78
2023/07/31 09:29:19;;;;;;;10.77;5.20;;;;;;;18.22;100.00;100630.47;5273982;28;20433;-80
2023/07/31 09:31:51;;;;;;;13.53;5.73;;;;;;;18.14;100.00;100628.53;5253488;28;20048;-77
2023/07/31 09:34:40;;;;;;;10.87;4.70;;;;;;;18.38;100.00;100629.78;5252655;28;20029;-78
2023/07/31 09:37:11;;;;;;;11.80;5.50;;;;;;;18.24;100.00;100623.16;5253136;28;20124;-76
2023/07/31 09:39:54;;;;;;;7.40;4.83;;;;;;;18.31;100.00;100612.84;5251898;28;20108;-77
2023/07/31 09:42:26;;;;;;;8.17;4.47;;;;;;;18.29;100.00;100615.63;5259686;28;20036;-84
2023/07/31 09:45:11;;;;;;;7.67;4.60;;;;;;;18.43;100.00;100616.09;5272554;28;20032;-82
2023/07/31 09:47:48;;;;;;;9.20;4.60;;;;;;;18.46;100.00;100614.00;5268482;28;20037;-74
2023/07/31 09:50:24;;;;;;;8.60;4.70;;;;;;;18.48;100.00;100619.16;5264501;28;20052;-75
2023/07/31 09:52:55;;;;;;;7.00;4.67;;;;;;;18.38;100.00;100622.69;5266390;28;20035;-74
2023/07/31 09:55:28;;;;;;;11.23;4.80;;;;;;;18.47;100.00;100614.81;5234417;28;20028;-75
2023/07/31 09:58:03;;;;;;;11.63;5.30;;;;;;;18.47;100.00;100626.25;5252728;28;20436;-73
2023/07/31 10:00:35;;;;;;;8.23;4.50;;;;;;;18.51;100.00;100618.84;5263035;28;20514;-73
2023/07/31 10:03:08;;;;;;;13.83;4.87;;;;;;;18.51;100.00;100613.53;5261817;28;20628;-73
2023/07/31 10:05:45;;;;;;;9.02;4.72;;;;;;;18.56;100.00;100616.56;5265698;28;20039;-72
2023/07/31 10:08:19;;;;;;;11.10;4.33;;;;;;;18.58;100.00;100614.59;5270679;28;20035;-71
2023/07/31 10:10:51;;;;;;;8.30;4.30;;;;;;;18.62;100.00;100612.50;5270162;28;20068;-69
2023/07/31 10:13:22;;;;;;;6.17;3.67;;;;;;;18.64;100.00;100601.72;5265917;28;20128;-71
2023/07/31 10:15:54;;;;;;;7.63;4.07;;;;;;;18.72;100.00;100605.28;5261631;28;20033;-72
2023/07/31 10:18:26;;;;;;;7.83;3.97;;;;;;;18.89;100.00;100604.56;5251296;28;20054;-73
2023/07/31 10:20:58;;;;;;;8.77;5.00;;;;;;;19.02;100.00;100604.19;5250335;28;20075;-73
2023/07/31 10:23:30;;;;;;;9.00;3.67;;;;;;;19.00;100.00;100596.41;5265051;28;20032;-75
2023/07/31 10:26:02;;;;;;;7.07;4.00;;;;;;;18.99;100.00;100603.50;5269966;28;20036;-72
2023/07/31 10:28:34;;;;;;;9.90;4.77;;;;;;;19.20;100.00;100609.53;5252361;28;20093;-74
2023/07/31 10:31:06;;;;;;;9.07;4.27;;;;;;;19.15;100.00;100614.47;5264820;28;20115;-73
2023/07/31 10:33:38;;;;;;;10.03;3.50;;;;;;;19.22;100.00;100610.19;5262235;28;21706;-72
2023/07/31 10:36:20;;;;;;;6.10;3.57;;;;;;;19.34;100.00;100619.56;5264470;28;20739;-70
2023/07/31 10:38:51;;;;;;;4.33;3.23;;;;;;;19.20;100.00;100604.22;5263943;28;20036;-71
2023/07/31 10:41:32;;;;;;;6.93;3.80;;;;;;;19.36;100.00;100610.63;5267316;28;20525;-70
2023/07/31 10:44:06;;;;;;;5.67;3.40;;;;;;;19.27;100.00;100604.44;5253698;28;20037;-71
2023/07/31 10:46:38;;;;;;;11.10;3.53;;;;;;;19.28;100.00;100612.22;5273323;28;20074;-72
2023/07/31 10:49:09;;;;;;;7.30;4.10;;;;;;;19.29;100.00;100616.53;5276207;28;20059;-72
2023/07/31 10:51:40;;;;;;;9.07;3.63;;;;;;;19.34;100.00;100608.09;5275345;28;20035;-73
2023/07/31 10:54:15;;;;;;;8.23;3.77;;;;;;;19.28;100.00;100608.72;5269022;28;20491;-70
2023/07/31 10:56:46;;;;;;;;;;;;;;;19.76;100.00;100613.66;5273275;28;20033;-71
2023/07/31 10:59:20;;;;;;;8.67;3.87;;;;;;;19.31;100.00;100598.63;5274143;28;19982;-70
2023/07/31 11:02:02;;;;;;;7.83;4.07;;;;;;;19.40;100.00;100601.34;5275957;28;20123;-76
2023/07/31 11:04:33;;;;;;;7.30;4.30;;;;;;;19.38;100.00;100600.66;5276822;28;20287;-78
2023/07/31 11:07:08;;;;;;;5.90;4.17;;;;;;;19.51;100.00;100603.75;5275802;28;20040;-72
2023/07/31 11:09:39;;;;;;;7.37;3.63;;;;;;;19.52;100.00;100602.75;5275713;28;20029;-72
2023/07/31 11:12:11;;;;;;;9.50;4.40;;;;;;;19.55;100.00;100597.13;5262312;28;20047;-74
2023/07/31 11:14:43;;;;;;;7.80;4.13;;;;;;;19.53;100.00;100601.75;5263064;28;20047;-84
2023/07/31 11:17:14;;;;;;;7.53;3.43;;;;;;;19.56;100.00;100593.47;5276054;28;20036;-72
2023/07/31 11:19:45;;;;;;;6.83;3.40;;;;;;;19.58;100.00;100599.44;5271690;28;20032;-75
2023/07/31 11:22:17;;;;;;;9.27;4.53;;;;;;;19.61;100.00;100589.50;5274671;28;20085;-79
2023/07/31 11:24:48;;;;;;;8.00;3.97;;;;;;;19.65;100.00;100596.19;5267475;28;20040;-75
2023/07/31 11:27:20;;;;;;;8.27;4.30;;;;;;;19.78;100.00;100582.44;5255760;28;20029;-71
2023/07/31 11:29:51;;;;;;;10.57;4.00;;;;;;;19.84;100.00;100589.78;5237526;28;20036;-72
2023/07/31 11:32:23;;;;;;;6.67;3.20;;;;;;;19.81;100.00;100588.25;5237634;28;20024;-74
2023/07/31 11:34:54;;;;;;;11.13;4.50;;;;;;;20.05;100.00;100576.13;5258181;28;20727;-74